Terminal Aerodrome Forecast
Issued by NWS Charleston, WV

Current Version | Previous Version | Graphics & Text | Print | Product List | Glossary On
Versions: 1 2 3 4 5 6 7 8 9 10 11 12 13 14 15 16 17 18 19 20 21 22
000
FTUS41 KRLX 231958 AAA
TAFPKB
TAF AMD
KPKB 231958Z 2320/2418 35005KT P6SM BKN025
      TEMPO 2320/2324 SCT025 BKN035
     FM240000 02004KT P6SM FEW250
     FM240800 00000KT 4SM BR SCT250
     FM241300 06003KT 6SM BR SCT250=

USA.gov is the U.S. government's official web portal to all federal, state and local government web resources and services.